Time;durP1;ratioP1;P1;durP2;ratioP2;P2;SDS_P1;SDS_P2;PMS_P1;PMS_P2;Temp;Humidity;BMP_temperature;BMP_pressure;BME280_temperature;BME280_humidity;BME280_pressure;Samples;Min_cycle;Max_cycle;Signal;HPM_P1;HPM_P2
2020/12/23 00:00:40;;;;;;;6.40;3.47;;;14.00;99.90;;;;;;10367850;28;20080;-65
2020/12/23 00:05:42;;;;;;;34.55;6.70;;;14.00;99.90;;;;;;10368650;28;20392;-65
2020/12/23 00:10:43;;;;;;;127.22;9.23;;;14.00;99.90;;;;;;10348055;28;20569;-65
2020/12/23 00:15:45;;;;;;;360.10;14.88;;;14.00;99.90;;;;;;10348156;28;20241;-64
2020/12/23 00:20:47;;;;;;;325.92;11.80;;;14.00;99.90;;;;;;10350222;28;20052;-65
2020/12/23 00:25:48;;;;;;;64.28;8.43;;;13.90;99.90;;;;;;10347895;28;20204;-65
2020/12/23 00:30:50;;;;;;;108.05;9.35;;;13.90;99.90;;;;;;10362120;28;20054;-65
2020/12/23 00:36:00;;;;;;;109.87;10.70;;;13.80;99.90;;;;;;10366890;28;20070;-65
2020/12/23 00:41:01;;;;;;;9.80;5.40;;;13.80;99.90;;;;;;10367555;28;20061;-65
2020/12/23 00:46:10;;;;;;;7.50;4.78;;;13.80;99.90;;;;;;10388382;28;20482;-65
2020/12/23 00:51:14;;;;;;;6.18;2.85;;;13.80;99.90;;;;;;10375593;28;20482;-65
2020/12/23 00:56:16;;;;;;;12.23;6.28;;;13.90;99.90;;;;;;10373736;28;20046;-65
2020/12/23 01:01:17;;;;;;;12.93;4.97;;;13.80;99.90;;;;;;10338212;28;20051;-65
2020/12/23 01:06:22;;;;;;;9.57;6.75;;;13.70;99.90;;;;;;10336054;28;20089;-65
2020/12/23 01:11:23;;;;;;;14.13;8.18;;;13.70;99.90;;;;;;10342212;28;20089;-65
2020/12/23 01:16:25;;;;;;;28.95;15.98;;;13.60;99.90;;;;;;10344431;28;20074;-65
2020/12/23 01:21:26;;;;;;;16.48;9.30;;;13.70;99.90;;;;;;10333850;28;20050;-64
2020/12/23 01:26:28;;;;;;;5.95;3.35;;;13.70;99.90;;;;;;10334892;28;20058;-65
2020/12/23 01:31:29;;;;;;;7.20;5.57;;;13.70;99.90;;;;;;10335673;28;20058;-65
2020/12/23 01:36:38;;;;;;;6.82;6.05;;;13.60;99.90;;;;;;10335086;28;20442;-65
2020/12/23 01:41:39;;;;;;;3.58;2.80;;;13.70;99.90;;;;;;10363887;28;20057;-65
2020/12/23 01:46:42;;;;;;;2.30;1.20;;;13.70;99.90;;;;;;10374197;28;20142;-65
2020/12/23 01:51:45;;;;;;;1.65;1.20;;;13.60;99.90;;;;;;10372827;28;20581;-65
2020/12/23 01:56:46;;;;;;;5.10;2.30;;;13.50;99.90;;;;;;10389612;28;20080;-65
2020/12/23 02:01:49;;;;;;;3.33;2.40;;;13.40;99.90;;;;;;10373261;28;20049;-65
2020/12/23 02:06:58;;;;;;;4.78;1.88;;;13.30;99.90;;;;;;10388355;28;20050;-65
2020/12/23 02:12:01;;;;;;;5.55;2.00;;;13.30;99.90;;;;;;10373645;28;20384;-64
2020/12/23 02:17:02;;;;;;;2.50;1.50;;;13.50;99.90;;;;;;10373102;28;20117;-64
2020/12/23 02:22:04;;;;;;;4.45;1.20;;;13.60;99.90;;;;;;10372925;28;20050;-65
2020/12/23 02:27:05;;;;;;;5.25;1.40;;;13.70;99.90;;;;;;10371578;28;20168;-65
2020/12/23 02:32:07;;;;;;;3.30;1.60;;;13.70;99.90;;;;;;10372152;28;20050;-65
2020/12/23 02:37:17;;;;;;;3.03;1.20;;;13.80;99.90;;;;;;10372211;28;20116;-65
2020/12/23 02:42:20;;;;;;;3.55;1.10;;;13.80;99.90;;;;;;10372512;28;20092;-64
2020/12/23 02:47:23;;;;;;;3.25;1.10;;;13.70;99.90;;;;;;10371674;28;20077;-65
2020/12/23 02:52:24;;;;;;;3.38;1.77;;;13.70;99.90;;;;;;10372282;28;20466;-65
2020/12/23 02:57:25;;;;;;;5.57;2.78;;;13.70;99.90;;;;;;10370983;28;20188;-65
2020/12/23 03:02:27;;;;;;;3.50;2.15;;;13.80;99.90;;;;;;10371042;28;20046;-65
2020/12/23 03:07:34;;;;;;;2.83;1.30;;;13.80;99.90;;;;;;10369436;28;20108;-65
2020/12/23 03:12:35;;;;;;;3.10;1.63;;;13.70;99.90;;;;;;10372002;28;20077;-65
2020/12/23 03:17:37;;;;;;;11.32;6.55;;;13.80;99.90;;;;;;10370580;28;20056;-65
2020/12/23 03:22:39;;;;;;;7.13;4.30;;;13.80;99.90;;;;;;10371000;28;20049;-65
2020/12/23 03:27:41;;;;;;;7.90;4.85;;;13.80;99.90;;;;;;10370581;28;20050;-65
2020/12/23 03:32:42;;;;;;;6.22;3.47;;;13.80;99.90;;;;;;10369697;28;20124;-65
2020/12/23 03:37:52;;;;;;;4.10;2.05;;;13.80;99.90;;;;;;10370209;28;20056;-65
2020/12/23 03:42:53;;;;;;;117.60;6.70;;;13.70;99.90;;;;;;10370604;28;20077;-64
2020/12/23 03:47:55;;;;;;;182.05;8.98;;;13.60;99.90;;;;;;10369572;28;20100;-64
2020/12/23 03:52:58;;;;;;;221.20;9.55;;;13.60;99.90;;;;;;10369175;28;20576;-65
2020/12/23 03:57:59;;;;;;;347.75;10.00;;;13.60;99.90;;;;;;10369348;28;20137;-65
2020/12/23 04:03:01;;;;;;;6.43;2.53;;;13.50;99.90;;;;;;10369226;28;20050;-65
2020/12/23 04:08:11;;;;;;;4.20;1.92;;;13.60;99.90;;;;;;10370125;28;20085;-65
2020/12/23 04:13:13;;;;;;;6.07;2.53;;;13.60;99.90;;;;;;10368238;28;20046;-64
2020/12/23 04:18:14;;;;;;;3.50;1.70;;;13.60;99.90;;;;;;10374965;28;20053;-65
2020/12/23 04:23:16;;;;;;;7.22;2.50;;;13.60;99.90;;;;;;10376402;28;20046;-65
2020/12/23 04:28:17;;;;;;;6.00;2.20;;;13.60;99.90;;;;;;10377265;28;20046;-65
2020/12/23 04:33:19;;;;;;;5.18;2.00;;;13.60;99.90;;;;;;10377064;28;20561;-65
2020/12/23 04:38:40;;;;;;;5.03;1.40;;;13.60;99.90;;;;;;10377698;28;20045;-65
2020/12/23 04:43:42;;;;;;;2.75;1.50;;;13.50;99.90;;;;;;10376787;28;20092;-64
2020/12/23 04:48:45;;;;;;;7.15;1.88;;;13.50;99.90;;;;;;10377149;28;20042;-65
2020/12/23 04:53:47;;;;;;;26.70;4.03;;;13.60;99.90;;;;;;10376644;28;20132;-65
2020/12/23 04:58:48;;;;;;;5.20;2.20;;;13.60;99.90;;;;;;10376208;28;20092;-65
2020/12/23 05:03:52;;;;;;;5.88;1.80;;;13.70;99.90;;;;;;10376398;28;20130;-65
2020/12/23 05:08:54;;;;;;;9.90;3.58;;;13.70;99.90;;;;;;10375753;28;20404;-65
2020/12/23 05:13:55;;;;;;;11.43;5.63;;;13.70;99.90;;;;;;10375943;28;20046;-65
2020/12/23 05:18:57;;;;;;;6.85;3.63;;;13.70;99.90;;;;;;10375942;28;20054;-64
2020/12/23 05:23:59;;;;;;;9.95;4.55;;;13.70;99.90;;;;;;10374282;28;20050;-65
2020/12/23 05:29:00;;;;;;;5.93;2.47;;;13.70;99.90;;;;;;10372836;28;20471;-65
2020/12/23 05:34:04;;;;;;;2.50;1.38;;;13.60;99.90;;;;;;10375007;28;20058;-65
2020/12/23 05:39:11;;;;;;;13.00;2.72;;;13.60;99.90;;;;;;10374835;28;20041;-65
2020/12/23 05:44:18;;;;;;;227.77;7.50;;;13.50;99.90;;;;;;10388561;28;20512;-65
2020/12/23 05:49:21;;;;;;;11.70;6.65;;;13.40;99.90;;;;;;10368565;28;20083;-65
2020/12/23 05:54:24;;;;;;;87.18;8.60;;;13.30;99.90;;;;;;10371320;28;20045;-65
2020/12/23 05:59:25;;;;;;;3.20;1.90;;;13.30;99.90;;;;;;10371997;28;20529;-65
2020/12/23 06:04:28;;;;;;;11.82;3.20;;;13.30;99.90;;;;;;10370915;28;20049;-65
2020/12/23 06:09:37;;;;;;;70.57;6.72;;;13.50;99.90;;;;;;10364293;28;20056;-65
2020/12/23 06:14:54;;;;;;;23.60;6.45;;;13.40;99.90;;;;;;10371102;28;20084;-65
2020/12/23 06:19:57;;;;;;;30.58;6.25;;;13.40;99.90;;;;;;10371308;28;20061;-65
2020/12/23 06:25:00;;;;;;;18.25;7.50;;;13.40;99.90;;;;;;10370097;28;20053;-65
2020/12/23 06:30:03;;;;;;;13.90;6.15;;;13.30;99.90;;;;;;10370454;28;20128;-65
2020/12/23 06:35:06;;;;;;;23.88;5.20;;;13.20;99.90;;;;;;10370566;28;20085;-65
2020/12/23 06:40:12;;;;;;;21.08;6.00;;;13.20;99.90;;;;;;10369734;28;20053;-65
2020/12/23 06:45:15;;;;;;;37.72;11.73;;;13.10;99.90;;;;;;10366704;28;20060;-65
2020/12/23 06:50:26;;;;;;;121.53;17.15;;;13.20;99.90;;;;;;10363551;28;20056;-65
2020/12/23 06:55:53;;;;;;;45.00;13.80;;;13.20;99.90;;;;;;10357900;28;20046;-65
2020/12/23 07:01:17;;;;;;;64.20;36.28;;;13.00;99.90;;;;;;10368289;28;20057;-65
2020/12/23 07:06:33;;;;;;;414.85;30.83;;;12.90;99.90;;;;;;10384161;28;20045;-65
2020/12/23 07:11:37;;;;;;;201.73;16.52;;;13.00;99.90;;;;;;10332014;28;20128;-65
2020/12/23 07:16:42;;;;;;;107.78;11.18;;;13.00;99.90;;;;;;10366384;28;20049;-65
2020/12/23 07:21:48;;;;;;;140.50;26.08;;;13.10;99.90;;;;;;10330608;28;20057;-65
2020/12/23 07:26:52;;;;;;;159.00;14.55;;;13.00;99.90;;;;;;10367263;28;20050;-65
2020/12/23 07:31:54;;;;;;;14.90;9.85;;;12.90;99.90;;;;;;10367663;28;20406;-65
2020/12/23 07:37:02;;;;;;;22.13;11.48;;;13.00;99.90;;;;;;10367924;28;20100;-65
2020/12/23 07:42:05;;;;;;;52.67;12.77;;;13.10;99.90;;;;;;10365655;28;20081;-65
2020/12/23 07:47:07;;;;;;;60.35;15.77;;;13.10;99.90;;;;;;10367400;28;20049;-64
2020/12/23 07:52:08;;;;;;;30.27;13.00;;;13.20;99.90;;;;;;10364205;28;20050;-65
2020/12/23 07:57:25;;;;;;;14.98;10.30;;;13.10;99.90;;;;;;10368953;28;20084;-65
2020/12/23 08:02:27;;;;;;;35.30;15.25;;;13.20;99.90;;;;;;10367976;28;20148;-65
2020/12/23 08:07:29;;;;;;;94.07;16.58;;;13.20;99.90;;;;;;10350898;28;20415;-65
2020/12/23 08:12:30;;;;;;;192.35;14.27;;;13.00;99.90;;;;;;10330954;28;20450;-65
2020/12/23 08:17:32;;;;;;;193.50;12.15;;;13.00;99.90;;;;;;10344609;28;20477;-65
2020/12/23 08:22:35;;;;;;;433.83;19.25;;;13.10;99.90;;;;;;10368678;28;20137;-65
2020/12/23 08:27:38;;;;;;;291.27;15.70;;;13.20;99.90;;;;;;10354097;28;20121;-67
2020/12/23 08:33:00;;;;;;;569.80;31.20;;;13.30;99.90;;;;;;10343864;28;20093;-67
2020/12/23 08:38:02;;;;;;;258.63;29.40;;;13.30;99.90;;;;;;10351133;28;20054;-68
2020/12/23 08:43:03;;;;;;;234.18;30.98;;;13.40;99.90;;;;;;10365673;28;20140;-68
2020/12/23 08:48:07;;;;;;;70.90;23.90;;;13.40;99.90;;;;;;10367469;28;20169;-68
2020/12/23 08:53:09;;;;;;;26.92;16.02;;;13.50;99.90;;;;;;10369660;28;20046;-67
2020/12/23 08:58:11;;;;;;;151.70;25.60;;;13.50;99.90;;;;;;10384694;28;20498;-67
2020/12/23 09:03:24;;;;;;;32.17;17.83;;;13.60;99.90;;;;;;10372180;28;20084;-68
2020/12/23 09:08:29;;;;;;;122.63;22.48;;;13.70;99.90;;;;;;10376250;28;20104;-68
2020/12/23 09:13:32;;;;;;;31.80;18.25;;;13.80;99.90;;;;;;10375816;28;20049;-68
2020/12/23 09:18:33;;;;;;;25.60;16.92;;;13.80;99.90;;;;;;10374577;28;20049;-68
2020/12/23 09:23:35;;;;;;;23.02;15.27;;;13.90;99.90;;;;;;10375169;28;20084;-68
2020/12/23 09:28:36;;;;;;;31.02;18.00;;;14.00;99.90;;;;;;10375799;28;20077;-67
2020/12/23 09:33:40;;;;;;;15.93;12.38;;;14.00;99.90;;;;;;10374037;28;20139;-68
2020/12/23 09:38:43;;;;;;;275.08;18.70;;;14.00;99.90;;;;;;10374998;28;20414;-68
2020/12/23 09:43:44;;;;;;;11.52;9.15;;;13.80;99.90;;;;;;10374200;28;20149;-67
2020/12/23 09:48:45;;;;;;;15.65;12.15;;;14.00;99.90;;;;;;10374529;28;20483;-68
2020/12/23 09:53:47;;;;;;;44.35;18.25;;;14.10;99.90;;;;;;10373386;28;20077;-68
2020/12/23 09:58:48;;;;;;;20.23;13.52;;;14.10;99.90;;;;;;10373817;28;20130;-69
2020/12/23 10:03:50;;;;;;;39.22;19.77;;;14.10;99.90;;;;;;10374389;28;20084;-69
2020/12/23 10:08:52;;;;;;;25.92;17.48;;;14.20;99.90;;;;;;10373874;28;20081;-68
2020/12/23 10:13:55;;;;;;;24.83;19.20;;;14.30;99.90;;;;;;10388409;28;20100;-68
2020/12/23 10:18:57;;;;;;;30.55;22.50;;;14.30;99.90;;;;;;10373675;28;20078;-68
2020/12/23 10:23:58;;;;;;;37.45;25.23;;;14.40;99.90;;;;;;10372768;28;20534;-68
2020/12/23 10:28:59;;;;;;;711.08;48.35;;;14.40;99.90;;;;;;10373004;28;20103;-68
2020/12/23 10:34:01;;;;;;;252.95;33.17;;;14.40;99.90;;;;;;10371477;28;20093;-68
2020/12/23 10:39:03;;;;;;;218.05;36.67;;;14.30;99.90;;;;;;10372632;28;20085;-68
2020/12/23 10:44:05;;;;;;;28.15;20.80;;;14.30;99.90;;;;;;10371830;28;20077;-68
2020/12/23 10:49:06;;;;;;;29.27;20.40;;;14.20;99.90;;;;;;10372716;28;20089;-67
2020/12/23 10:54:08;;;;;;;11.85;9.70;;;14.30;99.90;;;;;;10372447;28;20060;-68
2020/12/23 10:59:10;;;;;;;54.60;20.33;;;14.30;99.90;;;;;;10371359;28;20112;-68
2020/12/23 11:04:11;;;;;;;32.92;19.08;;;14.20;99.90;;;;;;10371841;28;20065;-68
2020/12/23 11:09:13;;;;;;;49.70;29.35;;;14.10;99.90;;;;;;10371622;28;20049;-68
2020/12/23 11:14:14;;;;;;;36.05;24.52;;;14.10;99.90;;;;;;10371209;28;20129;-68
2020/12/23 11:19:18;;;;;;;36.70;25.88;;;13.90;99.90;;;;;;10371673;28;20085;-68
2020/12/23 11:24:20;;;;;;;33.45;24.00;;;14.00;99.90;;;;;;10370562;28;20054;-68
2020/12/23 11:29:21;;;;;;;434.20;42.92;;;14.10;99.90;;;;;;10370485;28;20089;-68
2020/12/23 11:34:22;;;;;;;268.25;32.58;;;14.20;99.90;;;;;;10370732;28;20458;-68
2020/12/23 11:39:33;;;;;;;37.28;23.38;;;14.30;99.90;;;;;;10371072;28;20050;-67
2020/12/23 11:44:34;;;;;;;232.98;28.77;;;14.20;99.90;;;;;;10369698;28;20517;-67
2020/12/23 11:49:36;;;;;;;307.67;34.15;;;14.10;99.90;;;;;;10385154;28;20088;-68
2020/12/23 11:54:37;;;;;;;481.67;23.27;;;14.20;99.90;;;;;;10382259;28;20054;-68
2020/12/23 11:59:39;;;;;;;198.93;23.02;;;14.10;99.90;;;;;;10369389;28;20124;-68
2020/12/23 12:04:40;;;;;;;40.25;24.20;;;14.00;99.90;;;;;;10379833;28;20498;-68
2020/12/23 12:09:42;;;;;;;17.45;13.40;;;14.00;99.90;;;;;;10381838;28;20196;-67
2020/12/23 12:14:44;;;;;;;376.77;44.90;;;14.20;99.90;;;;;;10366719;28;20042;-68
2020/12/23 12:19:45;;;;;;;140.88;27.70;;;14.20;99.90;;;;;;10353374;28;20138;-67
2020/12/23 12:24:47;;;;;;;121.47;32.00;;;14.30;99.90;;;;;;10328977;28;20051;-66
2020/12/23 12:29:48;;;;;;;107.97;35.42;;;14.40;99.90;;;;;;10343424;28;20054;-67
2020/12/23 12:34:50;;;;;;;37.17;21.35;;;14.50;99.90;;;;;;10367786;28;20096;-66
2020/12/23 12:39:51;;;;;;;42.17;22.63;;;14.50;99.90;;;;;;10371901;28;20041;-67
2020/12/23 12:44:53;;;;;;;53.40;27.85;;;14.50;99.90;;;;;;10374831;28;20108;-66
2020/12/23 12:49:54;;;;;;;15.85;11.95;;;14.40;99.90;;;;;;10371173;28;20463;-66
2020/12/23 12:54:55;;;;;;;32.97;20.75;;;14.40;99.90;;;;;;10367016;28;20054;-66
2020/12/23 12:59:57;;;;;;;17.95;12.32;;;14.50;99.90;;;;;;10363520;28;20088;-66
2020/12/23 13:04:58;;;;;;;65.10;21.35;;;14.60;99.90;;;;;;10372770;28;20074;-66
2020/12/23 13:10:00;;;;;;;33.17;21.77;;;14.60;99.90;;;;;;10374209;28;20062;-66
2020/12/23 13:15:02;;;;;;;60.30;32.50;;;14.60;99.90;;;;;;10374532;28;20078;-66
2020/12/23 13:20:05;;;;;;;52.30;23.23;;;14.50;99.90;;;;;;10374991;28;20049;-66
2020/12/23 13:25:07;;;;;;;41.63;22.65;;;14.40;99.90;;;;;;10374529;28;20140;-66
2020/12/23 13:30:09;;;;;;;898.38;54.58;;;14.50;99.90;;;;;;10373884;28;20085;-66
2020/12/23 13:35:10;;;;;;;256.70;18.10;;;14.50;99.90;;;;;;10373430;28;20046;-66
2020/12/23 13:40:12;;;;;;;37.53;23.33;;;14.50;99.90;;;;;;10373295;28;20049;-66
2020/12/23 13:45:14;;;;;;;9.77;8.38;;;14.40;99.90;;;;;;10366701;28;20121;-66
2020/12/23 13:50:15;;;;;;;349.23;26.35;;;14.30;99.90;;;;;;10372773;28;20081;-66
2020/12/23 13:55:17;;;;;;;21.20;15.55;;;14.20;99.90;;;;;;10374217;28;20053;-67
2020/12/23 14:00:18;;;;;;;30.08;17.63;;;14.10;99.90;;;;;;10370685;28;20045;-66
2020/12/23 14:05:23;;;;;;;91.60;27.42;;;14.20;99.90;;;;;;10373619;28;20046;-67
2020/12/23 14:10:25;;;;;;;37.92;22.92;;;14.20;99.90;;;;;;10374174;28;20085;-66
2020/12/23 14:15:26;;;;;;;20.02;15.48;;;14.30;99.90;;;;;;10373494;28;20046;-66
2020/12/23 14:20:28;;;;;;;7.65;4.65;;;14.40;99.90;;;;;;10374298;28;20085;-66
2020/12/23 14:25:29;;;;;;;5.50;3.53;;;14.50;99.90;;;;;;10373145;28;20506;-67
2020/12/23 14:30:31;;;;;;;8.60;5.07;;;14.50;99.90;;;;;;10371895;28;20458;-67
2020/12/23 14:35:32;;;;;;;5.40;4.13;;;14.50;99.90;;;;;;10372729;28;20062;-67
2020/12/23 14:40:34;;;;;;;6.60;4.55;;;14.60;99.90;;;;;;10372799;28;20544;-66
2020/12/23 14:45:35;;;;;;;19.27;12.65;;;14.60;99.90;;;;;;10372726;28;20108;-67
2020/12/23 14:50:38;;;;;;;5.78;4.45;;;14.50;99.90;;;;;;10372568;28;20049;-67
2020/12/23 14:55:39;;;;;;;4.65;3.30;;;14.30;99.90;;;;;;10371614;28;20084;-66
2020/12/23 15:00:41;;;;;;;5.35;3.10;;;14.30;99.90;;;;;;10370166;28;20137;-66
2020/12/23 15:05:45;;;;;;;3.17;2.03;;;14.20;99.90;;;;;;10370601;28;20092;-66
2020/12/23 15:10:47;;;;;;;3.58;2.10;;;14.10;99.90;;;;;;10371487;28;20506;-66
2020/12/23 15:15:48;;;;;;;4.70;2.60;;;14.10;99.90;;;;;;10370687;28;20064;-66
2020/12/23 15:20:56;;;;;;;4.00;2.03;;;14.10;99.90;;;;;;10370071;28;20077;-66
2020/12/23 15:25:58;;;;;;;3.00;1.60;;;14.00;99.90;;;;;;10371146;28;20049;-66
2020/12/23 15:30:59;;;;;;;2.95;1.73;;;14.00;99.90;;;;;;10368558;28;20054;-66
2020/12/23 15:36:01;;;;;;;2.55;1.48;;;13.90;99.90;;;;;;10370753;28;20046;-67
2020/12/23 15:41:04;;;;;;;3.75;2.20;;;14.00;99.90;;;;;;10370401;28;20490;-66
2020/12/23 15:46:09;;;;;;;31.30;16.52;;;14.00;99.90;;;;;;10369795;28;20490;-66
2020/12/23 15:51:10;;;;;;;49.10;25.05;;;14.00;99.90;;;;;;10370089;28;20107;-66
2020/12/23 15:56:12;;;;;;;37.63;18.33;;;13.80;99.90;;;;;;10371168;28;20056;-66
2020/12/23 16:01:13;;;;;;;59.95;28.63;;;13.80;99.90;;;;;;10369650;28;20076;-64
2020/12/23 16:06:15;;;;;;;32.90;15.77;;;13.80;99.90;;;;;;10370187;28;20077;-64
2020/12/23 16:11:17;;;;;;;30.38;16.45;;;13.80;99.90;;;;;;10371175;28;20141;-64
2020/12/23 16:16:20;;;;;;;37.58;19.52;;;13.80;99.90;;;;;;10378294;28;20124;-64
2020/12/23 16:21:24;;;;;;;22.08;12.20;;;13.80;99.90;;;;;;10377868;28;20492;-64
2020/12/23 16:26:26;;;;;;;22.80;11.75;;;13.70;99.90;;;;;;10377735;28;20137;-65
2020/12/23 16:31:35;;;;;;;39.53;18.15;;;13.80;99.90;;;;;;10376688;28;20149;-64
2020/12/23 16:36:36;;;;;;;11.45;5.88;;;13.80;99.90;;;;;;10377698;28;20490;-65
2020/12/23 16:41:38;;;;;;;6.88;2.92;;;13.70;99.90;;;;;;10377490;28;20074;-64
2020/12/23 16:46:41;;;;;;;21.75;10.07;;;13.70;99.90;;;;;;10376693;28;20103;-64
2020/12/23 16:51:43;;;;;;;13.48;6.78;;;13.80;99.90;;;;;;10376834;28;20048;-65
2020/12/23 16:56:52;;;;;;;6.95;3.60;;;13.90;99.90;;;;;;10376722;28;20068;-65
2020/12/23 17:01:57;;;;;;;6.82;2.63;;;13.80;99.90;;;;;;10376249;28;20046;-64
2020/12/23 17:06:59;;;;;;;2.72;1.80;;;13.80;99.90;;;;;;10376699;28;20053;-64
2020/12/23 17:12:03;;;;;;;3.40;1.90;;;13.80;99.90;;;;;;10376179;28;20106;-64
2020/12/23 17:17:06;;;;;;;13.52;6.60;;;13.60;99.90;;;;;;10375734;28;20046;-64
2020/12/23 17:22:09;;;;;;;18.83;10.82;;;13.50;99.90;;;;;;10375963;28;20081;-63
2020/12/23 17:27:10;;;;;;;11.73;5.57;;;13.50;99.90;;;;;;10374596;28;20089;-64
2020/12/23 17:32:12;;;;;;;8.05;4.22;;;13.60;99.90;;;;;;10371850;28;20089;-63
2020/12/23 17:37:14;;;;;;;5.70;3.70;;;13.60;99.90;;;;;;10372602;28;20486;-64
2020/12/23 17:42:15;;;;;;;3.67;2.65;;;13.50;99.90;;;;;;10375087;28;20061;-63
2020/12/23 17:47:18;;;;;;;2.25;1.50;;;13.40;99.90;;;;;;10374249;28;20494;-64
2020/12/23 17:52:19;;;;;;;4.75;2.67;;;13.30;99.90;;;;;;10374438;28;20488;-63
2020/12/23 17:57:27;;;;;;;6.00;4.00;;;13.40;99.90;;;;;;10374476;28;20450;-64
2020/12/23 18:02:28;;;;;;;15.50;12.13;;;13.30;99.90;;;;;;10373868;28;20065;-64
2020/12/23 18:07:31;;;;;;;3.67;2.67;;;13.10;99.90;;;;;;10373870;28;20073;-63
2020/12/23 18:12:32;;;;;;;3.75;2.05;;;13.20;99.90;;;;;;10373471;28;20405;-63
2020/12/23 18:17:37;;;;;;;4.18;1.70;;;13.10;99.90;;;;;;10373193;28;20108;-63
2020/12/23 18:22:38;;;;;;;2.45;1.60;;;13.20;99.90;;;;;;10373458;28;20121;-63
2020/12/23 18:27:40;;;;;;;2.80;1.50;;;13.10;99.90;;;;;;10371891;28;20065;-64
2020/12/23 18:32:42;;;;;;;2.90;1.20;;;13.20;99.90;;;;;;10372526;28;20093;-64
2020/12/23 18:37:43;;;;;;;1.20;1.10;;;13.20;99.90;;;;;;10372884;28;20119;-64
2020/12/23 18:42:45;;;;;;;2.38;1.50;;;13.10;99.90;;;;;;10372972;28;20109;-64
2020/12/23 18:47:48;;;;;;;2.53;1.25;;;13.10;99.90;;;;;;10369765;28;20049;-64
2020/12/23 18:52:52;;;;;;;4.40;1.40;;;13.00;99.90;;;;;;10371984;28;20089;-65
2020/12/23 18:57:54;;;;;;;3.85;1.45;;;13.00;99.90;;;;;;10372101;28;20084;-64
2020/12/23 19:02:56;;;;;;;2.53;1.58;;;13.00;99.90;;;;;;10370902;28;20486;-64
2020/12/23 19:07:57;;;;;;;2.60;1.30;;;13.00;99.90;;;;;;10371952;28;20081;-64
2020/12/23 19:12:59;;;;;;;3.05;1.45;;;13.00;99.90;;;;;;10371003;28;20120;-64
2020/12/23 19:18:00;;;;;;;2.92;1.30;;;13.00;99.90;;;;;;10369560;28;20088;-64
2020/12/23 19:23:02;;;;;;;2.42;1.40;;;13.00;99.90;;;;;;10371379;28;20042;-64
2020/12/23 19:28:03;;;;;;;3.92;1.65;;;13.10;99.90;;;;;;10371423;28;20100;-64
2020/12/23 19:33:07;;;;;;;5.88;1.90;;;13.00;99.90;;;;;;10384627;28;20108;-64
2020/12/23 19:38:11;;;;;;;4.22;1.40;;;13.10;99.90;;;;;;10369562;28;20138;-64
2020/12/23 19:43:14;;;;;;;3.72;2.75;;;13.10;99.90;;;;;;10370165;28;20125;-64
2020/12/23 19:48:15;;;;;;;3.75;2.00;;;13.10;99.90;;;;;;10369452;28;20064;-64
2020/12/23 19:53:17;;;;;;;3.92;1.77;;;13.20;99.90;;;;;;10370317;28;20108;-64
2020/12/23 19:58:18;;;;;;;3.95;1.50;;;13.30;99.90;;;;;;10369832;28;20046;-66
2020/12/23 20:03:20;;;;;;;2.90;1.50;;;13.30;99.90;;;;;;10370370;28;20053;-66
2020/12/23 20:08:21;;;;;;;3.33;1.30;;;13.40;99.90;;;;;;10370625;28;20100;-64
2020/12/23 20:13:23;;;;;;;3.92;1.80;;;13.30;99.90;;;;;;10369659;28;20081;-64
2020/12/23 20:18:24;;;;;;;3.20;1.30;;;13.30;99.90;;;;;;10384436;28;20128;-64
2020/12/23 20:23:25;;;;;;;3.10;1.50;;;13.30;99.90;;;;;;10369487;28;20469;-64
2020/12/23 20:28:27;;;;;;;2.40;1.27;;;13.30;99.90;;;;;;10369922;28;20084;-64
2020/12/23 20:33:29;;;;;;;5.88;1.50;;;13.20;99.90;;;;;;10368987;28;20078;-64
2020/12/23 20:38:47;;;;;;;2.90;1.55;;;13.10;99.90;;;;;;10370101;28;20123;-63
2020/12/23 20:43:49;;;;;;;3.25;1.42;;;13.10;99.90;;;;;;10369297;28;20066;-64
2020/12/23 20:48:51;;;;;;;3.88;1.42;;;13.20;99.90;;;;;;10368833;28;20513;-64
2020/12/23 20:53:52;;;;;;;5.13;1.58;;;13.30;99.90;;;;;;10368907;28;20129;-64
2020/12/23 20:58:53;;;;;;;2.67;1.25;;;13.10;99.90;;;;;;10371102;28;20073;-64
2020/12/23 21:03:55;;;;;;;3.92;1.35;;;13.30;99.90;;;;;;10376426;28;20054;-64
2020/12/23 21:08:56;;;;;;;4.00;1.55;;;13.40;99.90;;;;;;10376595;28;20058;-64
2020/12/23 21:13:59;;;;;;;3.88;1.50;;;13.40;99.90;;;;;;10390156;28;20077;-64
2020/12/23 21:19:01;;;;;;;4.68;1.48;;;13.30;99.90;;;;;;10375489;28;20057;-64
2020/12/23 21:24:02;;;;;;;4.50;1.63;;;13.30;99.90;;;;;;10372564;28;20379;-64
2020/12/23 21:29:05;;;;;;;7.00;1.90;;;13.40;99.90;;;;;;10373306;28;20149;-64
2020/12/23 21:34:07;;;;;;;4.90;1.90;;;13.40;99.90;;;;;;10373429;28;20573;-64
2020/12/23 21:39:08;;;;;;;5.50;1.90;;;13.30;99.90;;;;;;10375838;28;20128;-64
2020/12/23 21:44:10;;;;;;;3.60;1.60;;;13.40;99.90;;;;;;10374825;28;20096;-64
2020/12/23 21:49:18;;;;;;;8.82;1.90;;;13.30;99.90;;;;;;10373929;28;20053;-64
2020/12/23 21:54:19;;;;;;;6.47;1.60;;;13.30;99.90;;;;;;10374047;28;20069;-64
2020/12/23 21:59:21;;;;;;;9.38;2.67;;;13.20;99.90;;;;;;10373186;28;20054;-64
2020/12/23 22:04:23;;;;;;;6.05;2.28;;;13.30;99.90;;;;;;10373859;28;20077;-64
2020/12/23 22:09:25;;;;;;;3.90;1.98;;;13.20;99.90;;;;;;10373793;28;20136;-64
2020/12/23 22:14:26;;;;;;;5.35;1.65;;;13.00;99.90;;;;;;10373210;28;20077;-64
2020/12/23 22:19:36;;;;;;;4.72;1.55;;;12.80;99.90;;;;;;10372419;28;20549;-64
2020/12/23 22:24:37;;;;;;;5.10;1.63;;;12.80;99.90;;;;;;10373042;28;20050;-64
2020/12/23 22:29:39;;;;;;;4.05;1.52;;;12.70;99.90;;;;;;10371885;28;20049;-64
2020/12/23 22:34:41;;;;;;;4.95;1.55;;;12.70;99.90;;;;;;10371809;28;20054;-64
2020/12/23 22:39:43;;;;;;;6.50;1.70;;;12.60;99.90;;;;;;10371931;28;20498;-64
2020/12/23 22:44:45;;;;;;;5.72;1.67;;;12.40;99.90;;;;;;10365435;28;20077;-64
2020/12/23 22:49:54;;;;;;;5.55;1.90;;;12.40;99.40;;;;;;10369549;28;20050;-64
2020/12/23 22:54:55;;;;;;;7.55;1.80;;;12.20;98.50;;;;;;10367653;28;20486;-64
2020/12/23 22:59:57;;;;;;;7.53;2.28;;;12.20;97.30;;;;;;10385598;28;20155;-64
2020/12/23 23:04:58;;;;;;;7.05;1.70;;;12.00;97.30;;;;;;10369908;28;20084;-64
2020/12/23 23:10:03;;;;;;;7.45;1.50;;;11.90;97.00;;;;;;10370458;28;20137;-64
2020/12/23 23:15:06;;;;;;;8.40;1.80;;;11.80;96.70;;;;;;10369955;28;20549;-64
2020/12/23 23:20:15;;;;;;;7.60;1.92;;;11.70;96.60;;;;;;10369380;28;20469;-64
2020/12/23 23:25:17;;;;;;;6.18;1.50;;;11.60;96.30;;;;;;10369040;28;20077;-64
2020/12/23 23:30:21;;;;;;;6.90;1.60;;;11.50;96.40;;;;;;10351553;28;20088;-64
2020/12/23 23:35:23;;;;;;;9.15;2.05;;;11.40;96.50;;;;;;10333392;28;20085;-63
2020/12/23 23:40:24;;;;;;;7.35;2.05;;;11.30;95.90;;;;;;10346519;28;20513;-64
2020/12/23 23:45:28;;;;;;;8.10;1.92;;;11.30;95.80;;;;;;10368806;28;20085;-64
2020/12/23 23:50:33;;;;;;;6.35;1.90;;;11.20;95.30;;;;;;10369713;28;20096;-64
2020/12/23 23:55:35;;;;;;;8.52;2.05;;;11.20;95.20;;;;;;10369576;28;20054;-63
